Time;durP1;ratioP1;P1;durP2;ratioP2;P2;SDS_P1;SDS_P2;PMS_P1;PMS_P2;Temp;Humidity;BMP_temperature;BMP_pressure;BME280_temperature;BME280_humidity;BME280_pressure;Samples;Min_cycle;Max_cycle;Signal;HPM_P1;HPM_P2
2023/07/07 00:00:38;;;;;;;692.45;652.25;;;11.30;99.90;;;;;;5025404;28;20045;-66
2023/07/07 00:03:04;;;;;;;676.10;636.90;;;11.30;99.90;;;;;;5007650;28;20043;-66
2023/07/07 00:05:30;;;;;;;677.60;638.20;;;11.20;99.90;;;;;;5024898;28;20124;-66
2023/07/07 00:07:57;;;;;;;659.30;621.35;;;11.20;99.90;;;;;;5020649;28;20103;-66
2023/07/07 00:10:23;;;;;;;620.88;587.03;;;11.20;99.90;;;;;;5025781;28;20456;-66
2023/07/07 00:12:51;;;;;;;584.55;553.08;;;11.10;99.90;;;;;;5016437;28;20086;-66
2023/07/07 00:15:17;;;;;;;552.45;523.92;;;11.20;99.90;;;;;;5026112;28;20557;-66
2023/07/07 00:17:43;;;;;;;498.85;473.85;;;11.10;99.90;;;;;;5021993;28;20621;-66
2023/07/07 00:20:11;;;;;;;491.40;466.92;;;11.10;99.90;;;;;;5019378;28;20069;-65
2023/07/07 00:22:37;;;;;;;492.27;467.85;;;11.00;99.90;;;;;;5014387;28;20121;-66
2023/07/07 00:25:04;;;;;;;425.77;405.55;;;11.00;99.90;;;;;;5015156;28;20042;-66
2023/07/07 00:27:30;;;;;;;400.55;381.60;;;11.00;99.90;;;;;;5023798;28;20128;-66
2023/07/07 00:29:56;;;;;;;399.92;381.10;;;11.00;99.90;;;;;;5024784;28;20468;-66
2023/07/07 00:32:22;;;;;;;439.25;418.33;;;11.00;99.90;;;;;;5028374;28;20133;-66
2023/07/07 00:34:48;;;;;;;427.70;407.60;;;10.90;99.90;;;;;;5020344;28;20489;-66
2023/07/07 00:37:14;;;;;;;398.08;379.33;;;10.90;99.90;;;;;;5024625;28;20421;-66
2023/07/07 00:39:39;;;;;;;345.75;329.67;;;10.90;99.90;;;;;;5019460;28;20108;-66
2023/07/07 00:42:05;;;;;;;419.90;399.98;;;10.80;99.90;;;;;;5021017;28;20049;-66
2023/07/07 00:45:10;;;;;;;392.70;374.17;;;10.80;99.90;;;;;;5025609;28;20033;-65
2023/07/07 00:47:42;;;;;;;348.38;332.38;;;10.80;99.90;;;;;;5042116;28;20459;-66
2023/07/07 00:50:10;;;;;;;369.90;352.60;;;10.70;99.90;;;;;;5035162;28;20099;-66
2023/07/07 00:52:37;;;;;;;372.98;355.60;;;10.80;99.90;;;;;;5027872;28;20124;-66
2023/07/07 00:55:03;;;;;;;332.50;317.40;;;10.80;99.90;;;;;;5027889;28;20041;-66
2023/07/07 00:57:29;;;;;;;265.60;253.80;;;10.70;99.90;;;;;;5028434;28;20046;-66
2023/07/07 00:59:55;;;;;;;154.00;147.35;;;10.70;99.90;;;;;;5014696;28;20041;-66
2023/07/07 01:02:25;;;;;;;136.93;130.65;;;10.70;99.90;;;;;;5028632;28;20567;-66
2023/07/07 01:04:59;;;;;;;146.50;140.02;;;10.70;99.90;;;;;;5009587;28;20045;-66
2023/07/07 01:07:37;;;;;;;146.83;140.73;;;10.70;99.90;;;;;;5035995;28;20220;-66
2023/07/07 01:10:03;;;;;;;149.88;143.50;;;10.70;99.90;;;;;;5027933;28;20111;-66
2023/07/07 01:12:29;;;;;;;139.35;133.45;;;10.70;99.90;;;;;;5027987;28;20452;-66
2023/07/07 01:14:54;;;;;;;145.85;139.50;;;10.60;99.90;;;;;;5019985;28;22768;-66
2023/07/07 01:17:38;;;;;;;142.02;136.07;;;10.60;99.90;;;;;;5022453;28;20129;-66
2023/07/07 01:20:22;;;;;;;148.40;142.25;;;10.60;99.90;;;;;;5042217;28;20037;-66
2023/07/07 01:22:51;;;;;;;;;;;10.60;99.90;;;;;;5043293;28;20033;-66
2023/07/07 01:25:41;;;;;;;174.25;166.85;;;10.50;99.90;;;;;;5039100;28;20358;-66
2023/07/07 01:28:15;;;;;;;172.40;165.23;;;10.50;99.90;;;;;;5041546;28;20042;-66
2023/07/07 01:30:55;;;;;;;;;;;10.40;99.90;;;;;;5026780;28;20068;-66
2023/07/07 01:33:25;;;;;;;194.65;186.73;;;10.40;99.90;;;;;;5029578;28;19921;-66
2023/07/07 01:35:51;;;;;;;178.00;170.52;;;10.40;99.90;;;;;;4990771;28;20448;-66
2023/07/07 01:38:43;;;;;;;176.38;168.80;;;10.40;99.90;;;;;;5038164;28;20095;-66
2023/07/07 01:41:40;;;;;;;175.50;168.00;;;10.30;99.90;;;;;;5041382;28;20053;-66
2023/07/07 01:44:37;;;;;;;187.80;179.93;;;10.30;99.90;;;;;;5042913;28;20053;-66
2023/07/07 01:47:22;;;;;;;180.93;173.18;;;10.30;99.90;;;;;;5040791;28;20037;-66
2023/07/07 01:50:18;;;;;;;176.73;169.32;;;10.30;99.90;;;;;;5012594;28;20052;-66
2023/07/07 01:52:54;;;;;;;177.57;170.18;;;10.30;99.90;;;;;;4999923;28;20072;-66
2023/07/07 01:55:28;;;;;;;175.93;168.60;;;10.20;99.90;;;;;;5024930;28;20041;-66
2023/07/07 01:57:58;;;;;;;177.93;170.43;;;10.20;99.90;;;;;;5023947;28;20474;-66
2023/07/07 02:00:26;;;;;;;191.55;183.40;;;10.20;99.90;;;;;;5010228;28;20052;-66
2023/07/07 02:02:52;;;;;;;166.68;159.60;;;10.20;99.90;;;;;;5026856;28;20041;-66
2023/07/07 02:05:18;;;;;;;171.57;164.20;;;10.20;99.90;;;;;;5023233;28;20053;-66
2023/07/07 02:07:44;;;;;;;182.73;175.13;;;10.20;99.90;;;;;;5015664;28;20045;-66
2023/07/07 02:10:10;;;;;;;176.13;168.68;;;10.20;99.90;;;;;;5027888;28;20099;-66
2023/07/07 02:12:36;;;;;;;177.50;169.95;;;10.20;99.90;;;;;;5022866;28;20140;-66
2023/07/07 02:15:02;;;;;;;170.48;163.25;;;10.20;99.90;;;;;;5022679;28;20041;-66
2023/07/07 02:17:28;;;;;;;176.85;169.35;;;10.10;99.90;;;;;;5025262;28;20124;-66
2023/07/07 02:19:58;;;;;;;168.32;160.98;;;10.10;99.90;;;;;;5028708;28;20208;-66
2023/07/07 02:22:24;;;;;;;171.25;164.02;;;10.10;99.90;;;;;;5022905;28;20033;-66
2023/07/07 02:24:50;;;;;;;174.20;166.88;;;10.10;99.90;;;;;;5008185;28;20038;-66
2023/07/07 02:27:15;;;;;;;175.95;168.43;;;10.10;99.90;;;;;;5024387;28;20099;-66
2023/07/07 02:29:41;;;;;;;169.52;162.40;;;10.10;99.90;;;;;;5026396;28;20124;-66
2023/07/07 02:32:07;;;;;;;167.95;160.60;;;10.10;99.90;;;;;;5024555;28;20071;-66
2023/07/07 02:34:33;;;;;;;172.77;165.48;;;10.00;99.90;;;;;;5023669;28;20041;-66
2023/07/07 02:36:59;;;;;;;176.02;167.98;;;10.00;99.90;;;;;;5034138;28;20095;-66
2023/07/07 02:39:26;;;;;;;172.05;164.20;;;10.00;99.90;;;;;;5036255;28;20045;-66
2023/07/07 02:41:52;;;;;;;173.32;165.45;;;10.00;99.90;;;;;;5019607;28;20037;-66
2023/07/07 02:44:17;;;;;;;179.43;171.65;;;10.10;99.90;;;;;;5044025;28;20054;-66
2023/07/07 02:46:44;;;;;;;186.43;178.32;;;10.10;99.90;;;;;;5025293;28;20049;-66
2023/07/07 02:49:10;;;;;;;170.85;163.32;;;10.20;99.90;;;;;;5021833;28;20382;-66
2023/07/07 02:51:36;;;;;;;214.77;205.52;;;10.20;99.90;;;;;;5026955;28;20485;-66
2023/07/07 02:54:02;;;;;;;183.68;175.60;;;10.30;99.90;;;;;;5019735;28;20084;-66
2023/07/07 02:56:27;;;;;;;171.07;163.25;;;10.40;99.90;;;;;;5010609;28;20486;-66
2023/07/07 02:58:53;;;;;;;159.50;152.05;;;10.50;99.90;;;;;;4998752;28;20060;-66
2023/07/07 03:01:23;;;;;;;181.73;173.60;;;10.60;99.90;;;;;;5024894;28;20472;-66
2023/07/07 03:03:51;;;;;;;181.52;173.35;;;10.60;99.90;;;;;;5027408;28;20613;-66
2023/07/07 03:06:22;;;;;;;173.00;165.20;;;10.70;99.90;;;;;;5008404;28;20481;-66
2023/07/07 03:08:48;;;;;;;166.38;158.50;;;10.70;99.90;;;;;;5026078;28;20049;-66
2023/07/07 03:11:16;;;;;;;161.38;153.73;;;10.70;99.90;;;;;;5026999;28;20037;-66
2023/07/07 03:13:43;;;;;;;170.05;161.88;;;10.80;99.90;;;;;;5025271;28;20115;-66
2023/07/07 03:16:12;;;;;;;166.65;158.55;;;10.80;99.90;;;;;;5032408;28;20103;-66
2023/07/07 03:18:39;;;;;;;217.93;207.70;;;10.80;99.90;;;;;;5020367;28;20045;-67
2023/07/07 03:21:05;;;;;;;221.30;210.90;;;10.80;99.90;;;;;;5026913;28;20587;-66
2023/07/07 03:23:30;;;;;;;237.23;226.10;;;10.90;99.90;;;;;;5025819;28;20042;-66
2023/07/07 03:26:04;;;;;;;235.27;224.05;;;10.90;99.90;;;;;;5022423;28;20120;-66
2023/07/07 03:28:30;;;;;;;221.60;211.32;;;10.90;99.90;;;;;;5024423;28;20063;-66
2023/07/07 03:30:56;;;;;;;222.15;211.45;;;10.90;99.90;;;;;;5022992;28;20045;-66
2023/07/07 03:33:21;;;;;;;215.45;205.20;;;10.90;99.90;;;;;;5012887;28;20460;-66
2023/07/07 03:35:49;;;;;;;230.90;219.88;;;11.00;99.90;;;;;;5020306;28;20069;-66
2023/07/07 03:38:15;;;;;;;224.57;214.07;;;11.00;99.90;;;;;;5022483;28;20045;-66
2023/07/07 03:40:47;;;;;;;246.48;234.68;;;11.00;99.90;;;;;;5021544;28;20044;-66
2023/07/07 03:43:13;;;;;;;237.43;225.90;;;11.00;99.90;;;;;;5021539;28;20054;-66
2023/07/07 03:45:40;;;;;;;245.75;233.93;;;11.10;99.90;;;;;;5008235;28;20052;-66
2023/07/07 03:48:06;;;;;;;240.60;229.38;;;11.10;99.90;;;;;;5018758;28;20037;-66
2023/07/07 03:50:32;;;;;;;245.57;233.68;;;11.10;99.90;;;;;;5021190;28;20137;-66
2023/07/07 03:52:57;;;;;;;251.00;238.90;;;11.10;99.90;;;;;;5042627;28;20112;-66
2023/07/07 03:55:23;;;;;;;263.88;251.02;;;11.10;99.90;;;;;;5023558;28;20079;-67
2023/07/07 03:57:49;;;;;;;264.92;252.27;;;11.10;99.90;;;;;;5024227;28;20044;-66
2023/07/07 04:00:14;;;;;;;262.60;249.95;;;11.10;99.90;;;;;;5027012;28;20041;-66
2023/07/07 04:02:40;;;;;;;268.30;255.15;;;11.10;99.90;;;;;;5025510;28;20049;-66
2023/07/07 04:05:06;;;;;;;276.35;262.95;;;11.10;99.90;;;;;;5016822;28;20048;-66
2023/07/07 04:07:31;;;;;;;297.35;282.77;;;11.20;99.90;;;;;;5025099;28;20041;-66
2023/07/07 04:09:57;;;;;;;301.00;285.88;;;11.20;99.90;;;;;;5041568;28;20091;-66
2023/07/07 04:12:22;;;;;;;308.88;293.88;;;11.20;99.90;;;;;;5014606;28;20412;-66
2023/07/07 04:14:48;;;;;;;316.50;300.65;;;11.20;99.90;;;;;;5021675;28;20044;-66
2023/07/07 04:17:14;;;;;;;340.98;324.10;;;11.30;99.90;;;;;;5029891;28;20044;-66
2023/07/07 04:19:39;;;;;;;324.92;308.80;;;11.40;99.90;;;;;;5002598;28;20155;-66
2023/07/07 04:22:05;;;;;;;329.98;313.90;;;11.40;99.90;;;;;;5027576;28;20251;-66
2023/07/07 04:24:31;;;;;;;332.83;316.15;;;11.40;99.90;;;;;;5024225;28;20198;-66
2023/07/07 04:26:56;;;;;;;341.45;324.45;;;11.40;99.90;;;;;;5037249;28;20037;-67
2023/07/07 04:29:22;;;;;;;370.13;351.65;;;11.50;99.90;;;;;;5027454;28;20053;-67
2023/07/07 04:31:47;;;;;;;384.67;365.30;;;11.50;99.90;;;;;;5024068;28;20049;-67
2023/07/07 04:34:15;;;;;;;403.70;383.40;;;11.60;99.90;;;;;;5028478;28;20124;-67
2023/07/07 04:36:41;;;;;;;397.95;377.70;;;11.70;99.90;;;;;;5027416;28;20041;-66
2023/07/07 04:39:07;;;;;;;414.55;393.27;;;11.80;99.90;;;;;;5028065;28;20130;-67
2023/07/07 04:41:33;;;;;;;421.45;399.58;;;11.90;99.90;;;;;;5019928;28;20046;-67
2023/07/07 04:43:59;;;;;;;431.58;409.38;;;12.00;99.90;;;;;;5044195;28;20046;-67
2023/07/07 04:46:28;;;;;;;450.00;426.83;;;12.10;99.90;;;;;;5028117;28;20524;-67
2023/07/07 04:48:54;;;;;;;461.13;437.08;;;12.20;99.90;;;;;;5010024;28;20068;-67
2023/07/07 04:51:20;;;;;;;470.58;445.80;;;12.30;99.90;;;;;;5014009;28;20038;-67
2023/07/07 04:53:46;;;;;;;483.85;458.95;;;12.40;99.90;;;;;;5031403;28;20053;-67
2023/07/07 04:56:18;;;;;;;502.55;476.23;;;12.50;99.90;;;;;;5026209;28;20041;-66
2023/07/07 04:58:46;;;;;;;496.95;471.45;;;12.60;99.90;;;;;;5021389;28;21329;-67
2023/07/07 05:01:15;;;;;;;520.25;492.98;;;12.70;99.90;;;;;;5021244;28;20033;-66
2023/07/07 05:03:42;;;;;;;527.97;499.58;;;12.80;99.90;;;;;;5048323;28;20393;-67
2023/07/07 05:06:09;;;;;;;544.03;514.70;;;13.00;99.90;;;;;;5025750;28;20061;-66
2023/07/07 05:08:37;;;;;;;545.25;516.15;;;13.10;99.90;;;;;;5028612;28;20056;-66
2023/07/07 05:11:03;;;;;;;546.17;517.20;;;13.30;99.90;;;;;;5027047;28;20064;-67
2023/07/07 05:13:29;;;;;;;548.53;519.38;;;13.50;99.90;;;;;;5034696;28;20034;-66
2023/07/07 05:16:00;;;;;;;532.65;504.98;;;13.70;99.90;;;;;;5021250;28;20179;-67
2023/07/07 05:18:26;;;;;;;502.65;477.15;;;13.80;99.90;;;;;;5024360;28;20425;-67
2023/07/07 05:20:51;;;;;;;470.70;447.05;;;14.00;99.90;;;;;;5018257;28;20457;-67
2023/07/07 05:23:17;;;;;;;446.25;424.25;;;14.10;99.90;;;;;;5024282;28;20073;-66
2023/07/07 05:25:45;;;;;;;431.27;410.02;;;14.30;99.90;;;;;;5015037;28;20052;-67
2023/07/07 05:28:10;;;;;;;361.63;344.70;;;14.50;99.90;;;;;;5039323;28;20045;-67
2023/07/07 05:30:38;;;;;;;314.77;300.30;;;14.70;99.90;;;;;;5021564;28;20045;-67
2023/07/07 05:33:04;;;;;;;274.38;261.83;;;14.80;99.90;;;;;;5021893;28;20782;-66
2023/07/07 05:35:30;;;;;;;258.65;246.68;;;15.00;99.90;;;;;;5026009;28;20072;-67
2023/07/07 05:37:55;;;;;;;220.27;210.18;;;15.10;99.90;;;;;;5044437;28;20046;-66
2023/07/07 05:40:21;;;;;;;172.60;164.15;;;15.20;99.90;;;;;;5026880;28;20044;-66
2023/07/07 05:42:47;;;;;;;158.15;150.05;;;15.40;99.90;;;;;;5039722;28;20655;-67
2023/07/07 05:45:12;;;;;;;159.57;151.75;;;15.50;99.90;;;;;;5044221;28;20520;-66
2023/07/07 05:47:38;;;;;;;119.65;113.53;;;15.70;99.90;;;;;;5010519;28;20049;-66
2023/07/07 05:50:04;;;;;;;102.55;97.05;;;15.90;99.90;;;;;;5010509;28;20034;-67
2023/07/07 05:52:30;;;;;;;98.72;93.13;;;16.00;99.90;;;;;;5029753;28;20387;-67
2023/07/07 05:54:57;;;;;;;91.05;86.07;;;16.10;99.90;;;;;;5003686;28;20104;-67
2023/07/07 05:57:23;;;;;;;173.85;165.40;;;16.20;99.90;;;;;;4989460;28;20081;-67
2023/07/07 05:59:49;;;;;;;87.55;82.63;;;16.40;99.90;;;;;;4989089;28;20527;-67
2023/07/07 06:02:14;;;;;;;87.15;82.43;;;16.50;99.90;;;;;;4983734;28;20057;-67
2023/07/07 06:04:40;;;;;;;185.43;176.60;;;16.60;99.90;;;;;;4986667;28;20052;-67
2023/07/07 06:07:06;;;;;;;145.40;138.35;;;16.70;99.90;;;;;;4971660;28;20054;-67
2023/07/07 06:09:31;;;;;;;132.10;125.53;;;16.90;99.90;;;;;;4985856;28;20053;-67
2023/07/07 06:11:57;;;;;;;153.02;145.80;;;17.00;99.90;;;;;;4978133;28;20654;-67
2023/07/07 06:14:23;;;;;;;121.70;115.53;;;17.20;99.90;;;;;;5000759;28;20486;-66
2023/07/07 06:16:48;;;;;;;140.48;133.73;;;17.60;99.90;;;;;;5000138;28;20394;-67
2023/07/07 06:19:14;;;;;;;209.80;200.27;;;18.20;99.90;;;;;;4981292;28;20109;-67
2023/07/07 06:21:39;;;;;;;201.13;191.80;;;18.60;99.90;;;;;;4989804;28;20387;-67
2023/07/07 06:24:05;;;;;;;162.77;155.20;;;18.80;99.90;;;;;;4972086;28;20062;-67
2023/07/07 06:26:31;;;;;;;139.77;133.15;;;18.90;99.90;;;;;;4987641;28;20060;-67
2023/07/07 06:28:56;;;;;;;105.55;100.38;;;19.00;99.90;;;;;;4972227;28;20046;-67
2023/07/07 06:31:22;;;;;;;151.15;143.95;;;19.30;99.90;;;;;;4982954;28;20076;-67
2023/07/07 06:33:49;;;;;;;227.18;217.05;;;20.20;99.90;;;;;;5010359;28;20585;-67
2023/07/07 06:36:14;;;;;;;170.80;162.88;;;21.10;99.90;;;;;;5004325;28;20045;-67
2023/07/07 06:38:40;;;;;;;176.32;168.23;;;22.10;99.90;;;;;;5024784;28;20528;-67
2023/07/07 06:41:10;;;;;;;175.95;167.68;;;23.10;99.90;;;;;;5039364;28;20497;-67
2023/07/07 06:43:36;;;;;;;227.02;216.77;;;23.70;99.90;;;;;;5021308;28;20060;-67
2023/07/07 06:46:02;;;;;;;280.23;266.75;;;24.20;99.90;;;;;;5023040;28;20444;-67
2023/07/07 06:48:27;;;;;;;286.23;272.90;;;24.40;99.90;;;;;;5024673;28;20038;-67
2023/07/07 06:50:53;;;;;;;98.32;93.45;;;24.60;99.90;;;;;;5024483;28;20042;-67
2023/07/07 06:53:18;;;;;;;250.98;239.50;;;25.00;99.90;;;;;;5013336;28;20572;-67
2023/07/07 06:55:44;;;;;;;229.82;219.18;;;25.50;99.90;;;;;;5025059;28;20056;-67
2023/07/07 06:58:12;;;;;;;137.40;130.77;;;25.80;99.90;;;;;;5020571;28;20537;-67
2023/07/07 07:00:38;;;;;;;131.07;124.90;;;26.10;99.90;;;;;;5026477;28;20053;-67
2023/07/07 07:03:03;;;;;;;230.95;219.77;;;26.30;99.90;;;;;;5025177;28;20195;-67
2023/07/07 07:05:29;;;;;;;307.02;292.33;;;26.60;99.90;;;;;;5022599;28;20045;-67
2023/07/07 07:07:54;;;;;;;287.45;274.13;;;26.40;99.90;;;;;;5026528;28;20057;-67
2023/07/07 07:10:20;;;;;;;298.33;284.60;;;26.30;99.90;;;;;;5013558;28;20410;-67
2023/07/07 07:12:47;;;;;;;326.85;311.42;;;26.40;99.80;;;;;;5023903;28;20050;-67
2023/07/07 07:15:13;;;;;;;307.30;293.20;;;26.70;99.00;;;;;;5021897;28;20057;-67
2023/07/07 07:17:39;;;;;;;297.88;284.13;;;26.80;98.20;;;;;;5024170;28;20413;-67
2023/07/07 07:20:07;;;;;;;240.30;229.40;;;26.70;97.40;;;;;;5023141;28;20037;-67
2023/07/07 07:22:33;;;;;;;239.02;228.32;;;26.70;96.60;;;;;;5019511;28;20091;-67
2023/07/07 07:24:58;;;;;;;193.80;184.98;;;27.10;97.80;;;;;;5024186;28;20041;-67
2023/07/07 07:27:24;;;;;;;264.05;251.95;;;27.80;97.10;;;;;;5014301;28;20467;-67
2023/07/07 07:29:51;;;;;;;410.25;388.83;;;27.80;94.90;;;;;;5025863;28;20040;-68
2023/07/07 07:32:17;;;;;;;486.15;460.88;;;27.90;93.30;;;;;;5021349;28;20042;-67
2023/07/07 07:34:43;;;;;;;473.35;448.83;;;28.00;93.10;;;;;;5025451;28;20169;-67
2023/07/07 07:37:09;;;;;;;448.13;425.48;;;28.00;92.20;;;;;;5023839;28;20519;-67
2023/07/07 07:39:35;;;;;;;454.00;430.83;;;27.60;89.70;;;;;;5024559;28;20513;-67
2023/07/07 07:42:01;;;;;;;453.77;430.15;;;27.40;90.10;;;;;;5014132;28;20413;-67
2023/07/07 07:44:27;;;;;;;515.65;488.45;;;27.50;91.10;;;;;;5021052;28;20038;-67
2023/07/07 07:46:55;;;;;;;407.63;387.35;;;27.80;90.40;;;;;;5024401;28;20453;-67
2023/07/07 07:49:22;;;;;;;313.98;299.70;;;27.90;88.70;;;;;;5025619;28;20069;-67
2023/07/07 07:51:47;;;;;;;442.77;420.52;;;27.90;86.40;;;;;;5029157;28;20046;-67
2023/07/07 07:54:16;;;;;;;450.75;427.95;;;27.80;85.70;;;;;;5046203;28;20038;-67
2023/07/07 07:56:41;;;;;;;534.17;505.23;;;27.90;87.20;;;;;;5029141;28;20060;-67
2023/07/07 07:59:08;;;;;;;465.20;441.23;;;28.10;88.00;;;;;;5017771;28;20041;-67
2023/07/07 08:01:34;;;;;;;437.10;415.02;;;28.60;88.20;;;;;;5044550;28;20042;-68
2023/07/07 08:03:59;;;;;;;430.85;408.65;;;29.00;87.10;;;;;;5025785;28;20041;-67
2023/07/07 08:06:25;;;;;;;310.45;296.13;;;29.00;84.40;;;;;;5045315;28;20044;-68
2023/07/07 08:08:51;;;;;;;233.38;223.15;;;29.10;84.30;;;;;;5013111;28;20106;-68
2023/07/07 08:11:20;;;;;;;251.95;240.82;;;29.00;80.40;;;;;;5023233;28;20047;-68
2023/07/07 08:13:45;;;;;;;218.73;209.02;;;28.80;80.40;;;;;;5029787;28;20413;-67
2023/07/07 08:16:12;;;;;;;199.60;190.75;;;28.30;80.60;;;;;;5008786;28;20041;-67
2023/07/07 08:18:39;;;;;;;167.95;160.55;;;27.50;80.50;;;;;;5014384;28;20041;-67
2023/07/07 08:21:05;;;;;;;243.88;233.20;;;27.20;80.70;;;;;;5029057;28;20050;-67
2023/07/07 08:23:31;;;;;;;257.42;246.05;;;27.20;81.70;;;;;;5025571;28;20041;-67
2023/07/07 08:25:56;;;;;;;280.23;267.27;;;27.50;83.30;;;;;;5021066;28;20044;-68
2023/07/07 08:28:22;;;;;;;275.15;262.67;;;28.00;83.00;;;;;;5022492;28;20549;-68
2023/07/07 08:30:48;;;;;;;147.02;140.40;;;28.30;81.90;;;;;;5043665;28;20409;-67
2023/07/07 08:33:14;;;;;;;200.43;191.48;;;28.40;78.40;;;;;;5019898;28;20111;-67
2023/07/07 08:35:39;;;;;;;81.20;77.45;;;28.20;77.80;;;;;;5035321;28;20137;-67
2023/07/07 08:38:05;;;;;;;161.13;153.70;;;28.30;76.60;;;;;;5023898;28;20049;-67
2023/07/07 08:40:41;;;;;;;151.13;144.48;;;28.30;76.40;;;;;;5036694;28;20046;-67
2023/07/07 08:43:09;;;;;;;131.38;125.38;;;28.20;75.50;;;;;;5025406;28;20050;-68
2023/07/07 08:45:35;;;;;;;88.13;84.15;;;28.40;76.30;;;;;;5010805;28;20076;-68
2023/07/07 08:48:20;;;;;;;200.32;191.27;;;28.60;76.10;;;;;;5027646;28;20068;-68
2023/07/07 08:51:02;;;;;;;163.55;156.43;;;28.70;74.20;;;;;;5029032;28;20046;-67
2023/07/07 08:53:34;;;;;;;176.68;168.50;;;28.70;73.80;;;;;;5015098;28;20132;-67
2023/07/07 08:56:08;;;;;;;115.18;110.03;;;28.90;75.70;;;;;;5025283;28;20061;-67
2023/07/07 08:58:46;;;;;;;89.75;85.53;;;29.20;75.20;;;;;;5028741;28;20072;-68
2023/07/07 09:01:37;;;;;;;136.30;130.20;;;29.40;74.90;;;;;;5027258;28;20500;-68
2023/07/07 09:04:20;;;;;;;13.85;12.90;;;29.80;72.30;;;;;;5023758;28;20145;-68
2023/07/07 09:07:14;;;;;;;61.63;58.78;;;29.80;72.00;;;;;;5026365;28;20124;-68
2023/07/07 09:10:17;;;;;;;117.55;112.20;;;29.70;71.10;;;;;;5032357;28;20049;-68
2023/07/07 09:12:49;;;;;;;30.70;28.95;;;29.80;68.20;;;;;;5045030;28;20049;-68
2023/07/07 09:15:22;;;;;;;14.43;13.43;;;29.90;70.40;;;;;;5024337;28;20049;-67
2023/07/07 09:17:51;;;;;;;10.67;9.83;;;29.80;66.00;;;;;;5027783;28;20094;-68
2023/07/07 09:20:19;;;;;;;19.05;17.80;;;29.60;66.70;;;;;;5027288;28;20292;-68
2023/07/07 09:22:55;;;;;;;14.68;13.60;;;29.50;66.90;;;;;;5043396;28;20045;-68
2023/07/07 09:25:33;;;;;;;10.85;9.85;;;29.60;65.80;;;;;;5037026;28;20045;-67
2023/07/07 09:28:02;;;;;;;15.20;14.23;;;29.40;64.70;;;;;;5021923;28;20049;-68
2023/07/07 09:30:34;;;;;;;54.35;51.67;;;29.50;68.70;;;;;;5027921;28;20045;-68
2023/07/07 09:33:00;;;;;;;10.52;9.43;;;29.40;66.30;;;;;;5019713;28;20038;-68
2023/07/07 09:35:34;;;;;;;21.85;20.40;;;29.20;65.20;;;;;;5041539;28;20064;-68
2023/07/07 09:38:19;;;;;;;11.07;10.18;;;29.20;65.90;;;;;;5027530;28;20045;-67
2023/07/07 09:41:01;;;;;;;10.70;9.70;;;29.10;63.10;;;;;;5024487;28;20053;-67
2023/07/07 09:43:49;;;;;;;11.73;10.82;;;28.80;62.90;;;;;;5030179;28;20180;-67
2023/07/07 09:46:24;;;;;;;23.55;22.15;;;28.80;63.10;;;;;;5027447;28;20448;-67
2023/07/07 09:49:18;;;;;;;143.27;136.77;;;29.00;66.70;;;;;;5011024;28;20175;-68
2023/07/07 09:52:20;;;;;;;11.02;10.20;;;29.00;67.70;;;;;;5038299;28;20424;-67
2023/07/07 09:54:47;;;;;;;21.98;20.52;;;29.00;65.70;;;;;;5022372;28;20133;-67
2023/07/07 09:57:28;;;;;;;25.10;23.50;;;29.00;65.20;;;;;;5027778;28;20467;-67
2023/07/07 09:59:56;;;;;;;14.82;13.77;;;28.90;65.20;;;;;;5022995;28;20099;-67
2023/07/07 10:02:24;;;;;;;36.95;34.97;;;28.90;65.80;;;;;;5016148;28;20045;-68
2023/07/07 10:04:55;;;;;;;17.25;16.05;;;28.90;65.40;;;;;;5027159;28;20128;-67
2023/07/07 10:07:22;;;;;;;35.83;33.88;;;28.90;66.40;;;;;;5027990;28;20044;-67
2023/07/07 10:09:49;;;;;;;113.65;108.32;;;28.90;66.70;;;;;;5025845;28;20048;-67
2023/07/07 10:12:16;;;;;;;51.65;48.92;;;28.90;69.10;;;;;;5028581;28;20201;-67
2023/07/07 10:14:43;;;;;;;40.35;38.40;;;29.00;67.50;;;;;;5023419;28;20052;-67
2023/07/07 10:17:09;;;;;;;12.98;11.88;;;29.10;67.10;;;;;;5016153;28;20042;-67
2023/07/07 10:19:43;;;;;;;12.00;10.95;;;29.10;65.20;;;;;;5022793;28;20045;-67
2023/07/07 10:22:13;;;;;;;13.30;12.30;;;29.10;62.50;;;;;;5038039;28;20095;-67
2023/07/07 10:24:38;;;;;;;13.52;12.52;;;29.10;66.00;;;;;;5022020;28;20041;-67
2023/07/07 10:27:05;;;;;;;30.17;28.55;;;29.20;64.40;;;;;;5026649;28;20056;-67
2023/07/07 10:29:39;;;;;;;24.95;23.48;;;29.20;64.80;;;;;;5023125;28;20401;-67
2023/07/07 10:32:06;;;;;;;14.13;13.02;;;29.20;64.50;;;;;;5027346;28;20211;-67
2023/07/07 10:34:33;;;;;;;13.15;11.95;;;29.10;62.80;;;;;;5010340;28;20045;-67
2023/07/07 10:36:59;;;;;;;11.45;10.40;;;29.00;63.90;;;;;;5014874;28;20393;-67
2023/07/07 10:39:31;;;;;;;36.38;34.47;;;29.00;62.70;;;;;;5042254;28;20049;-67
2023/07/07 10:41:57;;;;;;;10.88;9.98;;;28.90;63.80;;;;;;5040086;28;20041;-67
2023/07/07 10:44:25;;;;;;;13.88;12.88;;;29.00;63.90;;;;;;5042659;28;20045;-68
2023/07/07 10:46:50;;;;;;;29.52;27.83;;;29.10;61.70;;;;;;5010122;28;20037;-68
2023/07/07 10:49:19;;;;;;;30.98;29.20;;;29.10;63.60;;;;;;5017287;28;20390;-67
2023/07/07 10:51:55;;;;;;;15.65;14.65;;;29.20;63.90;;;;;;5049153;28;20060;-67
2023/07/07 10:54:26;;;;;;;14.30;13.20;;;29.10;63.20;;;;;;5033513;28;20124;-67
2023/07/07 10:57:03;;;;;;;31.35;29.70;;;29.00;63.00;;;;;;5015179;28;20052;-67
2023/07/07 10:59:38;;;;;;;51.67;49.22;;;29.10;63.20;;;;;;5015310;28;20548;-67
2023/07/07 11:02:28;;;;;;;73.15;69.70;;;29.20;65.20;;;;;;5022923;28;20048;-69
2023/07/07 11:04:54;;;;;;;32.25;30.45;;;29.50;64.20;;;;;;5035575;28;20038;-68
2023/07/07 11:07:41;;;;;;;8.85;8.02;;;29.60;64.20;;;;;;5022713;28;20520;-67
2023/07/07 11:10:42;;;;;;;35.97;34.05;;;29.60;63.30;;;;;;5023344;28;20047;-67
2023/07/07 11:13:16;;;;;;;39.40;37.22;;;29.60;64.70;;;;;;5039557;28;20044;-67
2023/07/07 11:15:54;;;;;;;18.15;17.00;;;29.50;63.20;;;;;;5021822;28;20377;-67
2023/07/07 11:18:32;;;;;;;23.85;22.25;;;29.40;62.90;;;;;;5022279;28;20084;-67
2023/07/07 11:21:18;;;;;;;12.68;11.77;;;29.00;62.80;;;;;;5022210;28;20056;-67
2023/07/07 11:24:10;;;;;;;11.88;10.77;;;28.70;62.50;;;;;;5004479;28;20037;-67
2023/07/07 11:26:38;;;;;;;180.50;172.23;;;28.70;63.40;;;;;;5029919;28;20587;-67
2023/07/07 11:29:30;;;;;;;89.82;85.43;;;28.90;66.90;;;;;;5038251;28;20049;-66
2023/07/07 11:31:59;;;;;;;32.15;30.30;;;29.20;66.60;;;;;;5018051;28;20119;-67
2023/07/07 11:34:31;;;;;;;11.50;10.60;;;29.40;67.80;;;;;;5007784;28;20049;-67
2023/07/07 11:37:02;;;;;;;15.55;14.48;;;29.60;63.60;;;;;;5017599;28;20044;-68
2023/07/07 11:39:44;;;;;;;8.80;6.65;;;29.70;64.00;;;;;;5042332;28;20578;-67
2023/07/07 11:42:29;;;;;;;12.10;11.27;;;29.70;60.90;;;;;;5026208;28;20068;-67
2023/07/07 11:45:08;;;;;;;21.15;19.80;;;29.30;61.50;;;;;;5023850;28;20103;-67
2023/07/07 11:47:44;;;;;;;8.02;7.32;;;28.90;63.60;;;;;;5042253;28;20157;-67
2023/07/07 11:50:27;;;;;;;20.75;19.40;;;28.80;62.20;;;;;;5025532;28;20513;-67
2023/07/07 11:53:09;;;;;;;37.95;35.88;;;28.90;63.80;;;;;;5019294;28;20522;-67
2023/07/07 11:55:53;;;;;;;10.68;9.77;;;29.30;63.60;;;;;;5025456;28;20064;-67
2023/07/07 11:58:36;;;;;;;15.77;10.90;;;29.40;61.70;;;;;;5024359;28;20045;-67
2023/07/07 12:01:17;;;;;;;11.52;10.68;;;29.20;61.30;;;;;;5023643;28;20037;-67
2023/07/07 12:04:05;;;;;;;8.20;7.47;;;29.20;60.10;;;;;;5025034;28;20490;-67
2023/07/07 12:06:39;;;;;;;7.97;7.25;;;29.30;61.20;;;;;;5025703;28;20116;-67
2023/07/07 12:09:18;;;;;;;15.95;14.88;;;29.20;60.40;;;;;;5015961;28;20128;-67
2023/07/07 12:11:51;;;;;;;32.72;30.92;;;29.10;61.20;;;;;;5025992;28;20076;-67
2023/07/07 12:14:35;;;;;;;65.88;62.75;;;29.10;61.20;;;;;;5023917;28;20307;-67
2023/07/07 12:17:03;;;;;;;49.58;47.22;;;29.30;65.80;;;;;;5007605;28;20367;-67
2023/07/07 12:19:43;;;;;;;63.83;60.88;;;29.40;64.70;;;;;;5023007;28;20080;-67
2023/07/07 12:22:17;;;;;;;19.27;18.05;;;29.50;65.40;;;;;;5025621;28;20129;-67
2023/07/07 12:24:53;;;;;;;129.18;123.45;;;29.80;61.80;;;;;;4996956;28;20481;-67
2023/07/07 12:27:23;;;;;;;7.00;6.15;;;30.00;65.20;;;;;;5011583;28;20470;-68